Time;durP1;ratioP1;P1;durP2;ratioP2;P2;SDS_P1;SDS_P2;PMS_P1;PMS_P2;Temp;Humidity;BMP_temperature;BMP_pressure;BME280_temperature;BME280_humidity;BME280_pressure;Samples;Min_cycle;Max_cycle;Signal;HPM_P1;HPM_P2
2021/11/30 00:01:05;;;;;;;8.02;3.72;;;;;;;;;;5084391;28;20020;-72
2021/11/30 00:03:31;;;;;;;31.23;8.80;;;;;;;;;;5083158;28;20028;-72
2021/11/30 00:05:56;;;;;;;19.45;8.27;;;;;;;;;;5074071;28;20075;-71
2021/11/30 00:08:22;;;;;;;22.75;7.88;;;;;;;;;;5074397;28;20487;-72
2021/11/30 00:10:48;;;;;;;20.13;8.43;;;;;;;;;;5083680;28;20028;-72
2021/11/30 00:13:14;;;;;;;9.23;3.97;;;;;;;;;;5079674;28;20077;-72
2021/11/30 00:15:40;;;;;;;16.30;7.50;;;;;;;;;;5080498;28;20031;-72
2021/11/30 00:18:05;;;;;;;14.23;6.68;;;;;;;;;;5081575;28;20401;-72
2021/11/30 00:20:30;;;;;;;22.50;8.00;;;;;;;;;;5079930;28;20016;-72
2021/11/30 00:22:55;;;;;;;23.80;8.43;;;;;;;;;;5075430;28;20416;-71
2021/11/30 00:25:20;;;;;;;24.30;8.32;;;;;;;;;;5074452;28;20469;-72
2021/11/30 00:27:46;;;;;;;17.45;8.10;;;;;;;;;;5073633;28;20436;-72
2021/11/30 00:30:11;;;;;;;24.33;8.63;;;;;;;;;;5085689;28;20065;-72
2021/11/30 00:32:36;;;;;;;21.65;7.38;;;;;;;;;;5074194;28;20365;-72
2021/11/30 00:35:01;;;;;;;18.27;7.10;;;;;;;;;;5078585;28;20059;-72
2021/11/30 00:37:27;;;;;;;32.40;8.45;;;;;;;;;;5076587;28;20021;-72
2021/11/30 00:39:52;;;;;;;10.70;4.65;;;;;;;;;;5070200;28;20405;-72
2021/11/30 00:42:21;;;;;;;13.90;6.03;;;;;;;;;;5078755;28;20024;-72
2021/11/30 00:44:47;;;;;;;21.05;6.20;;;;;;;;;;5071722;28;20017;-72
2021/11/30 00:47:18;;;;;;;13.63;5.30;;;;;;;;;;5088547;28;20158;-72
2021/11/30 00:49:44;;;;;;;16.23;5.55;;;;;;;;;;5089870;28;20557;-72
2021/11/30 00:52:10;;;;;;;23.42;7.35;;;;;;;;;;5076454;28;20111;-72
2021/11/30 00:54:35;;;;;;;8.80;4.10;;;;;;;;;;5074116;28;20099;-71
2021/11/30 00:57:00;;;;;;;14.25;5.72;;;;;;;;;;5081147;28;20472;-72
2021/11/30 00:59:28;;;;;;;17.27;6.47;;;;;;;;;;5070284;28;20020;-72
2021/11/30 01:01:55;;;;;;;23.50;7.03;;;;;;;;;;5077902;28;20488;-72
2021/11/30 01:04:20;;;;;;;15.07;5.15;;;;;;;;;;5084588;28;20147;-72
2021/11/30 01:06:45;;;;;;;14.98;4.00;;;;;;;;;;5084825;28;20617;-72
2021/11/30 01:09:10;;;;;;;17.02;5.55;;;;;;;;;;5087139;28;20027;-72
2021/11/30 01:11:37;;;;;;;29.45;8.50;;;;;;;;;;5083844;28;20032;-72
2021/11/30 01:14:02;;;;;;;25.33;7.28;;;;;;;;;;5087254;28;20032;-72
2021/11/30 01:16:28;;;;;;;21.35;6.18;;;;;;;;;;5093139;28;20480;-71
2021/11/30 01:18:53;;;;;;;23.95;7.45;;;;;;;;;;5091591;28;20012;-72
2021/11/30 01:21:18;;;;;;;24.23;8.60;;;;;;;;;;5074460;28;20471;-72
2021/11/30 01:23:44;;;;;;;29.00;7.55;;;;;;;;;;5077610;28;20031;-71
2021/11/30 01:26:09;;;;;;;19.55;7.18;;;;;;;;;;5074072;28;20024;-72
2021/11/30 01:28:34;;;;;;;21.10;7.13;;;;;;;;;;5076103;28;20119;-72
2021/11/30 01:31:01;;;;;;;19.85;7.40;;;;;;;;;;5074636;28;20040;-72
2021/11/30 01:33:26;;;;;;;22.50;8.43;;;;;;;;;;5079569;28;20264;-71
2021/11/30 01:35:52;;;;;;;26.42;7.93;;;;;;;;;;5084919;28;20016;-72
2021/11/30 01:38:17;;;;;;;9.85;5.03;;;;;;;;;;5079846;28;20012;-72
2021/11/30 01:40:43;;;;;;;17.80;7.53;;;;;;;;;;5082275;28;20020;-72
2021/11/30 01:43:12;;;;;;;21.65;7.35;;;;;;;;;;5084338;28;20034;-72
2021/11/30 01:50:34;;;;;;;15.23;5.72;;;;;;;;;;5087786;28;20027;-72
2021/11/30 01:52:59;;;;;;;16.85;5.82;;;;;;;;;;5092191;28;20172;-72
2021/11/30 01:55:25;;;;;;;9.02;4.00;;;;;;;;;;5078400;28;20525;-72
2021/11/30 01:57:52;;;;;;;14.98;6.55;;;;;;;;;;5073049;28;20020;-71
2021/11/30 02:00:18;;;;;;;18.60;5.65;;;;;;;;;;5077229;28;20016;-72
2021/11/30 02:02:43;;;;;;;12.45;4.07;;;;;;;;;;5073736;28;20469;-72
2021/11/30 02:05:09;;;;;;;13.48;4.40;;;;;;;;;;5080569;28;20036;-72
2021/11/30 02:07:36;;;;;;;15.27;6.38;;;;;;;;;;5093462;28;20102;-72
2021/11/30 02:10:02;;;;;;;12.45;4.65;;;;;;;;;;5089484;28;20384;-72
2021/11/30 02:12:27;;;;;;;16.50;5.55;;;;;;;;;;5090482;28;20020;-72
2021/11/30 02:14:54;;;;;;;17.63;5.50;;;;;;;;;;5076377;28;20023;-72
2021/11/30 02:17:35;;;;;;;17.02;4.80;;;;;;;;;;5080180;28;20178;-72
2021/11/30 02:20:00;;;;;;;13.35;4.90;;;;;;;;;;5086167;28;20031;-72
2021/11/30 02:22:27;;;;;;;7.95;3.20;;;;;;;;;;5081999;28;20024;-71
2021/11/30 02:24:52;;;;;;;13.45;5.95;;;;;;;;;;5077987;28;20107;-71
2021/11/30 02:27:18;;;;;;;14.60;4.57;;;;;;;;;;5080314;28;20112;-71
2021/11/30 02:29:43;;;;;;;15.13;4.90;;;;;;;;;;5082020;28;20066;-71
2021/11/30 02:32:09;;;;;;;22.03;5.27;;;;;;;;;;5081045;28;20120;-71
2021/11/30 02:34:34;;;;;;;20.35;5.43;;;;;;;;;;5089510;28;20369;-71
2021/11/30 02:37:22;;;;;;;10.90;4.47;;;;;;;;;;5090450;28;20384;-71
2021/11/30 02:39:47;;;;;;;8.90;3.42;;;;;;;;;;5090752;28;20016;-71
2021/11/30 02:42:12;;;;;;;15.63;4.93;;;;;;;;;;5084439;28;20434;-71
2021/11/30 02:44:37;;;;;;;15.82;4.18;;;;;;;;;;5078902;28;20023;-71
2021/11/30 02:47:04;;;;;;;12.48;5.03;;;;;;;;;;5073517;28;20024;-71
2021/11/30 02:49:31;;;;;;;7.75;2.88;;;;;;;;;;5081285;28;20519;-71
2021/11/30 02:52:04;;;;;;;15.05;4.15;;;;;;;;;;5079496;28;20020;-71
2021/11/30 02:54:30;;;;;;;10.93;3.03;;;;;;;;;;5080252;28;20034;-71
2021/11/30 02:56:56;;;;;;;10.57;3.78;;;;;;;;;;5079430;28;20410;-72
2021/11/30 02:59:23;;;;;;;12.85;4.68;;;;;;;;;;5091046;28;20039;-72
2021/11/30 03:01:58;;;;;;;21.92;5.28;;;;;;;;;;5085110;28;20071;-71
2021/11/30 03:04:24;;;;;;;15.23;4.80;;;;;;;;;;5078432;28;20031;-72
2021/11/30 03:06:50;;;;;;;9.13;2.88;;;;;;;;;;5078123;28;20028;-72
2021/11/30 03:09:15;;;;;;;16.88;4.30;;;;;;;;;;5079210;28;20158;-72
2021/11/30 03:11:41;;;;;;;13.48;5.07;;;;;;;;;;5086821;28;20062;-72
2021/11/30 03:14:06;;;;;;;9.43;3.47;;;;;;;;;;5074579;28;20017;-72
2021/11/30 03:16:32;;;;;;;11.82;4.43;;;;;;;;;;5076990;28;20025;-72
2021/11/30 03:18:57;;;;;;;8.32;3.95;;;;;;;;;;5079453;28;20012;-72
2021/11/30 03:21:22;;;;;;;5.10;2.65;;;;;;;;;;5082413;28;20123;-72
2021/11/30 03:23:47;;;;;;;11.52;3.25;;;;;;;;;;5073511;28;20052;-72
2021/11/30 03:26:13;;;;;;;5.40;2.30;;;;;;;;;;5081684;28;20028;-72
2021/11/30 03:28:40;;;;;;;11.20;3.50;;;;;;;;;;5091599;28;20032;-72
2021/11/30 03:31:08;;;;;;;8.45;4.15;;;;;;;;;;5086754;28;20024;-72
2021/11/30 03:36:17;;;;;;;8.82;4.32;;;;;;;;;;5085100;28;20507;-72
2021/11/30 03:38:43;;;;;;;5.38;2.08;;;;;;;;;;5079851;28;20024;-72
2021/11/30 03:41:08;;;;;;;10.07;4.45;;;;;;;;;;5078128;28;20022;-73
2021/11/30 03:43:34;;;;;;;13.25;3.53;;;;;;;;;;5088990;28;20426;-72
2021/11/30 03:45:59;;;;;;;5.63;2.42;;;;;;;;;;5074138;28;20036;-72
2021/11/30 03:48:24;;;;;;;5.60;2.70;;;;;;;;;;5083089;28;20104;-72
2021/11/30 03:50:49;;;;;;;8.77;2.65;;;;;;;;;;5071926;28;20448;-72
2021/11/30 03:53:15;;;;;;;9.70;3.85;;;;;;;;;;5071909;28;20081;-72
2021/11/30 03:55:40;;;;;;;8.15;3.00;;;;;;;;;;5084644;28;20449;-72
2021/11/30 03:58:05;;;;;;;7.13;2.65;;;;;;;;;;5082202;28;20290;-73
2021/11/30 04:00:30;;;;;;;9.23;4.28;;;;;;;;;;5076529;28;20454;-73
2021/11/30 04:02:56;;;;;;;11.32;4.00;;;;;;;;;;5076585;28;20020;-73
2021/11/30 04:05:21;;;;;;;8.75;3.17;;;;;;;;;;5074236;28;20055;-73
2021/11/30 04:07:46;;;;;;;11.90;4.80;;;;;;;;;;5076555;28;20066;-73
2021/11/30 04:10:11;;;;;;;7.90;1.98;;;;;;;;;;5082647;28;20492;-73
2021/11/30 04:12:37;;;;;;;10.63;3.03;;;;;;;;;;5087278;28;20286;-73
2021/11/30 04:15:02;;;;;;;7.07;3.33;;;;;;;;;;5080086;28;20074;-73
2021/11/30 04:17:27;;;;;;;12.35;3.53;;;;;;;;;;5069993;28;20021;-73
2021/11/30 04:19:53;;;;;;;2.95;1.65;;;;;;;;;;5071664;28;20048;-73
2021/11/30 04:22:18;;;;;;;9.32;2.78;;;;;;;;;;5087782;28;20084;-73
2021/11/30 04:24:43;;;;;;;5.30;3.33;;;;;;;;;;5087692;28;20427;-73
2021/11/30 04:27:08;;;;;;;10.38;3.35;;;;;;;;;;5085488;28;20029;-73
2021/11/30 04:29:37;;;;;;;6.53;3.15;;;;;;;;;;5070431;28;20028;-73
2021/11/30 04:32:02;;;;;;;11.60;3.58;;;;;;;;;;5081652;28;20081;-73
2021/11/30 04:34:27;;;;;;;7.50;3.35;;;;;;;;;;5080612;28;20093;-73
2021/11/30 04:36:53;;;;;;;8.57;2.53;;;;;;;;;;5087824;28;20020;-73
2021/11/30 04:39:18;;;;;;;11.43;3.10;;;;;;;;;;5086505;28;20031;-73
2021/11/30 04:41:44;;;;;;;12.95;3.42;;;;;;;;;;5085658;28;20012;-73
2021/11/30 04:44:10;;;;;;;14.52;3.17;;;;;;;;;;5081370;28;20100;-73
2021/11/30 04:46:42;;;;;;;8.68;3.15;;;;;;;;;;5070081;28;20032;-73
2021/11/30 04:51:57;;;;;;;6.60;2.55;;;;;;;;;;5070725;28;20052;-73
2021/11/30 04:54:22;;;;;;;9.75;2.97;;;;;;;;;;5087943;28;20028;-73
2021/11/30 04:56:48;;;;;;;3.65;1.48;;;;;;;;;;5076770;28;20111;-73
2021/11/30 04:59:13;;;;;;;5.95;1.30;;;;;;;;;;5081409;28;20469;-73
2021/11/30 05:01:39;;;;;;;3.67;0.93;;;;;;;;;;5079518;28;20041;-73
2021/11/30 05:04:05;;;;;;;2.53;1.73;;;;;;;;;;5079374;28;20032;-73
2021/11/30 05:06:30;;;;;;;4.60;2.08;;;;;;;;;;5087001;28;20024;-73
2021/11/30 05:08:55;;;;;;;5.72;1.55;;;;;;;;;;5084866;28;20054;-73
2021/11/30 05:11:21;;;;;;;15.65;5.82;;;;;;;;;;5079637;28;20028;-73
2021/11/30 05:13:46;;;;;;;14.20;6.53;;;;;;;;;;5076616;28;20112;-73
2021/11/30 05:16:11;;;;;;;38.22;14.45;;;;;;;;;;5079135;28;20097;-73
2021/11/30 05:18:39;;;;;;;29.92;11.85;;;;;;;;;;5079818;28;20496;-73
2021/11/30 05:21:04;;;;;;;34.75;14.73;;;;;;;;;;5080348;28;20013;-73
2021/11/30 05:23:30;;;;;;;19.20;8.95;;;;;;;;;;5073021;28;20217;-73
2021/11/30 05:25:55;;;;;;;13.13;4.68;;;;;;;;;;5077355;28;20170;-73
2021/11/30 05:28:23;;;;;;;4.93;2.90;;;;;;;;;;5087550;28;20015;-73
2021/11/30 05:30:48;;;;;;;5.85;3.50;;;;;;;;;;5090226;28;20054;-73
2021/11/30 05:33:13;;;;;;;8.15;3.92;;;;;;;;;;5072807;28;20056;-73
2021/11/30 05:35:40;;;;;;;2.10;1.60;;;;;;;;;;5069743;28;20370;-72
2021/11/30 05:38:05;;;;;;;6.55;3.78;;;;;;;;;;5074533;28;20636;-72
2021/11/30 05:40:32;;;;;;;8.07;2.92;;;;;;;;;;5074374;28;20017;-72
2021/11/30 05:42:57;;;;;;;8.95;3.38;;;;;;;;;;5069093;28;20040;-72
2021/11/30 05:45:22;;;;;;;3.28;1.92;;;;;;;;;;5086797;28;20027;-72
2021/11/30 05:47:48;;;;;;;5.20;2.25;;;;;;;;;;5079461;28;20097;-72
2021/11/30 05:50:13;;;;;;;5.57;3.35;;;;;;;;;;5069903;28;20016;-72
2021/11/30 05:52:38;;;;;;;5.82;3.30;;;;;;;;;;5069851;28;20019;-72
2021/11/30 05:55:04;;;;;;;6.22;3.85;;;;;;;;;;5071388;28;20279;-72
2021/11/30 05:57:30;;;;;;;7.15;3.13;;;;;;;;;;5086923;28;20101;-72
2021/11/30 05:59:59;;;;;;;6.20;2.72;;;;;;;;;;5091500;28;20074;-72
2021/11/30 06:02:24;;;;;;;7.40;2.80;;;;;;;;;;5091049;28;20111;-72
2021/11/30 06:04:49;;;;;;;6.72;4.28;;;;;;;;;;5104701;28;20528;-72
2021/11/30 06:07:14;;;;;;;7.07;2.60;;;;;;;;;;5086590;28;20127;-72
2021/11/30 06:09:39;;;;;;;5.72;3.55;;;;;;;;;;5076212;28;20258;-72
2021/11/30 06:12:05;;;;;;;8.30;4.75;;;;;;;;;;5072923;28;20028;-72
2021/11/30 06:14:30;;;;;;;8.73;5.07;;;;;;;;;;5085278;28;20044;-72
2021/11/30 06:16:55;;;;;;;15.95;7.55;;;;;;;;;;5098389;28;20451;-72
2021/11/30 06:19:21;;;;;;;14.25;7.32;;;;;;;;;;5107315;28;20418;-72
2021/11/30 06:21:47;;;;;;;14.68;7.22;;;;;;;;;;5096069;28;20453;-72
2021/11/30 06:24:13;;;;;;;12.32;7.93;;;;;;;;;;5072273;28;20020;-72
2021/11/30 06:26:38;;;;;;;10.95;6.70;;;;;;;;;;5071296;28;20031;-72
2021/11/30 06:29:03;;;;;;;17.67;9.77;;;;;;;;;;5075373;28;20107;-72
2021/11/30 06:31:28;;;;;;;18.10;9.98;;;;;;;;;;5092353;28;20272;-72
2021/11/30 06:33:53;;;;;;;20.27;9.57;;;;;;;;;;5071956;28;20394;-72
2021/11/30 06:36:19;;;;;;;16.30;9.93;;;;;;;;;;5079735;28;20024;-72
2021/11/30 06:38:44;;;;;;;14.63;6.22;;;;;;;;;;5094733;28;20499;-72
2021/11/30 06:41:09;;;;;;;19.50;10.75;;;;;;;;;;5090256;28;20381;-72
2021/11/30 06:43:34;;;;;;;16.08;9.40;;;;;;;;;;5081283;28;20103;-72
2021/11/30 06:45:59;;;;;;;23.38;11.85;;;;;;;;;;5078492;28;20031;-72
2021/11/30 06:48:25;;;;;;;20.63;11.80;;;;;;;;;;5076761;28;20035;-72
2021/11/30 06:50:51;;;;;;;23.42;11.65;;;;;;;;;;5070046;28;20117;-72
2021/11/30 06:53:16;;;;;;;20.13;11.75;;;;;;;;;;5073564;28;20026;-72
2021/11/30 06:55:41;;;;;;;22.05;10.93;;;;;;;;;;5071500;28;20099;-72
2021/11/30 06:58:07;;;;;;;20.42;9.95;;;;;;;;;;5086180;28;20429;-72
2021/11/30 07:00:32;;;;;;;16.73;9.73;;;;;;;;;;5088718;28;20476;-72
2021/11/30 07:02:58;;;;;;;18.08;11.20;;;;;;;;;;5081619;28;20024;-72
2021/11/30 07:10:40;;;;;;;21.50;12.45;;;;;;;;;;5072926;28;20031;-71
2021/11/30 07:15:38;;;;;;;18.08;10.43;;;;;;;;;;5076924;28;20109;-72
2021/11/30 07:18:03;;;;;;;15.07;10.30;;;;;;;;;;5087952;28;20054;-72
2021/11/30 07:20:28;;;;;;;13.02;6.85;;;;;;;;;;5071623;28;20059;-73
2021/11/30 07:22:56;;;;;;;25.17;13.65;;;;;;;;;;5079484;28;20031;-72
2021/11/30 07:25:22;;;;;;;21.40;11.40;;;;;;;;;;5086416;28;20461;-72
2021/11/30 07:27:47;;;;;;;22.52;14.00;;;;;;;;;;5080251;28;20040;-72
2021/11/30 07:30:12;;;;;;;27.30;13.18;;;;;;;;;;5087418;28;20050;-72
2021/11/30 07:32:37;;;;;;;26.88;13.95;;;;;;;;;;5087946;28;20047;-72
2021/11/30 07:35:05;;;;;;;21.27;11.63;;;;;;;;;;5086567;28;20023;-72
2021/11/30 07:37:30;;;;;;;20.67;11.18;;;;;;;;;;5091793;28;20263;-73
2021/11/30 07:39:55;;;;;;;24.55;13.65;;;;;;;;;;5074731;28;20032;-73
2021/11/30 07:42:24;;;;;;;14.48;9.27;;;;;;;;;;5081940;28;20366;-72
2021/11/30 07:44:49;;;;;;;16.27;10.35;;;;;;;;;;5080535;28;20539;-72
2021/11/30 07:47:14;;;;;;;20.17;11.32;;;;;;;;;;5085997;28;20081;-73
2021/11/30 07:49:39;;;;;;;21.67;10.87;;;;;;;;;;5088317;28;20422;-71
2021/11/30 07:52:05;;;;;;;19.40;10.98;;;;;;;;;;5071846;28;20271;-72
2021/11/30 07:54:30;;;;;;;16.75;9.48;;;;;;;;;;5078103;28;20108;-73
2021/11/30 07:56:55;;;;;;;12.30;7.63;;;;;;;;;;5079780;28;20472;-70
2021/11/30 07:59:21;;;;;;;16.98;11.13;;;;;;;;;;5085177;28;20024;-72
2021/11/30 08:01:46;;;;;;;12.50;7.80;;;;;;;;;;5090959;28;20020;-70
2021/11/30 08:04:11;;;;;;;18.27;14.77;;;;;;;;;;5087946;28;20305;-73
2021/11/30 08:06:36;;;;;;;18.77;11.27;;;;;;;;;;5091231;28;20028;-71
2021/11/30 08:09:02;;;;;;;16.73;10.63;;;;;;;;;;5080972;28;20285;-73
2021/11/30 08:11:27;;;;;;;28.67;13.00;;;;;;;;;;5092149;28;20262;-73
2021/11/30 08:13:53;;;;;;;23.42;12.98;;;;;;;;;;5082503;28;20027;-72
2021/11/30 08:16:18;;;;;;;17.70;10.85;;;;;;;;;;5076104;28;20027;-72
2021/11/30 08:18:43;;;;;;;22.35;10.60;;;;;;;;;;5078391;28;20538;-71
2021/11/30 08:21:08;;;;;;;15.27;8.73;;;;;;;;;;5077490;28;20020;-72
2021/11/30 08:23:33;;;;;;;14.88;8.10;;;;;;;;;;5081772;28;20651;-72
2021/11/30 08:25:59;;;;;;;19.70;8.25;;;;;;;;;;5071666;28;20030;-72
2021/11/30 08:28:24;;;;;;;17.70;10.60;;;;;;;;;;5085965;28;20024;-72
2021/11/30 08:30:49;;;;;;;21.67;11.85;;;;;;;;;;5089303;28;20680;-72
2021/11/30 08:33:15;;;;;;;11.27;6.85;;;;;;;;;;5075123;28;20032;-72
2021/11/30 08:35:40;;;;;;;15.45;9.70;;;;;;;;;;5088698;28;20439;-71
2021/11/30 08:38:06;;;;;;;18.80;10.10;;;;;;;;;;5090259;28;20055;-72
2021/11/30 08:40:32;;;;;;;20.33;12.75;;;;;;;;;;5078929;28;20074;-73
2021/11/30 08:42:57;;;;;;;18.52;10.43;;;;;;;;;;5085149;28;20480;-72
2021/11/30 08:45:22;;;;;;;14.90;9.75;;;;;;;;;;5089077;28;20024;-73
2021/11/30 08:47:47;;;;;;;15.88;9.05;;;;;;;;;;5075083;28;20016;-71
2021/11/30 08:50:15;;;;;;;12.35;7.78;;;;;;;;;;5071643;28;20024;-73
2021/11/30 08:52:41;;;;;;;11.00;7.43;;;;;;;;;;5075903;28;20028;-73
2021/11/30 08:55:07;;;;;;;9.60;5.53;;;;;;;;;;5073258;28;20115;-72
2021/11/30 08:57:32;;;;;;;21.98;12.93;;;;;;;;;;5081146;28;20021;-73
2021/11/30 08:59:58;;;;;;;18.23;11.05;;;;;;;;;;5082721;28;20062;-73
2021/11/30 09:02:24;;;;;;;14.48;8.90;;;;;;;;;;5069602;28;20466;-73
2021/11/30 09:04:49;;;;;;;17.88;9.65;;;;;;;;;;5070208;28;20047;-73
2021/11/30 09:07:16;;;;;;;21.65;8.05;;;;;;;;;;5079860;28;20468;-72
2021/11/30 09:09:42;;;;;;;16.13;9.60;;;;;;;;;;5076070;28;20027;-72
2021/11/30 09:12:08;;;;;;;15.18;8.45;;;;;;;;;;5086214;28;20557;-73
2021/11/30 09:14:33;;;;;;;17.13;9.45;;;;;;;;;;5089151;28;20119;-72
2021/11/30 09:16:58;;;;;;;18.83;10.63;;;;;;;;;;5078954;28;20028;-73
2021/11/30 09:19:23;;;;;;;19.33;10.63;;;;;;;;;;5078483;28;20018;-72
2021/11/30 09:21:49;;;;;;;23.67;15.68;;;;;;;;;;5072380;28;20436;-72
2021/11/30 09:24:15;;;;;;;18.20;8.38;;;;;;;;;;5082931;28;20028;-72
2021/11/30 09:26:40;;;;;;;21.08;11.75;;;;;;;;;;5077850;28;20029;-73
2021/11/30 09:29:06;;;;;;;23.27;13.38;;;;;;;;;;5080187;28;20025;-72
2021/11/30 09:31:31;;;;;;;18.48;11.43;;;;;;;;;;5073432;28;20047;-73
2021/11/30 09:33:58;;;;;;;18.90;12.88;;;;;;;;;;5075377;28;20072;-72
2021/11/30 09:36:23;;;;;;;26.95;14.63;;;;;;;;;;5091340;28;20022;-72
2021/11/30 09:38:49;;;;;;;16.33;10.07;;;;;;;;;;5073611;28;20482;-73
2021/11/30 09:41:14;;;;;;;17.83;10.43;;;;;;;;;;5079085;28;20273;-72
2021/11/30 09:43:39;;;;;;;21.77;11.73;;;;;;;;;;5093858;28;20380;-71
2021/11/30 09:46:05;;;;;;;24.23;12.68;;;;;;;;;;5078611;28;20240;-72
2021/11/30 09:48:31;;;;;;;18.20;11.98;;;;;;;;;;5087429;28;20012;-72
2021/11/30 09:50:57;;;;;;;17.83;13.70;;;;;;;;;;5082258;28;20035;-71
2021/11/30 09:53:22;;;;;;;21.13;12.07;;;;;;;;;;5079499;28;20373;-72
2021/11/30 09:55:48;;;;;;;16.48;8.07;;;;;;;;;;5077712;28;20035;-72
2021/11/30 09:58:14;;;;;;;22.75;12.93;;;;;;;;;;5091353;28;20016;-73
2021/11/30 10:00:40;;;;;;;17.13;10.60;;;;;;;;;;5088378;28;20025;-73
2021/11/30 10:03:05;;;;;;;17.65;7.45;;;;;;;;;;5092042;28;20069;-72
2021/11/30 10:05:30;;;;;;;10.52;5.70;;;;;;;;;;5078407;28;20024;-73
2021/11/30 10:07:56;;;;;;;18.35;10.93;;;;;;;;;;5085080;28;20019;-73
2021/11/30 10:10:22;;;;;;;11.50;6.28;;;;;;;;;;5072683;28;20077;-71
2021/11/30 10:12:59;;;;;;;16.33;10.07;;;;;;;;;;5079624;28;20024;-73
2021/11/30 10:15:24;;;;;;;18.40;11.05;;;;;;;;;;5092049;28;20016;-72
2021/11/30 10:17:50;;;;;;;11.75;7.80;;;;;;;;;;5081383;28;20103;-71
2021/11/30 10:20:16;;;;;;;12.55;6.95;;;;;;;;;;5084316;28;20030;-71
2021/11/30 10:22:46;;;;;;;19.73;9.70;;;;;;;;;;5088273;28;20072;-71
2021/11/30 10:25:12;;;;;;;15.07;7.97;;;;;;;;;;5086503;28;20029;-72
2021/11/30 10:27:40;;;;;;;12.05;7.13;;;;;;;;;;5073928;28;20020;-70
2021/11/30 10:30:10;;;;;;;12.38;6.40;;;;;;;;;;5083833;28;20372;-72
2021/11/30 10:32:35;;;;;;;10.07;5.75;;;;;;;;;;5072729;28;20083;-71
2021/11/30 10:35:01;;;;;;;9.85;6.15;;;;;;;;;;5074403;28;20016;-72
2021/11/30 10:37:26;;;;;;;11.98;7.15;;;;;;;;;;5085861;28;20055;-72
2021/11/30 10:39:52;;;;;;;11.30;5.63;;;;;;;;;;5090350;28;20047;-71
2021/11/30 10:42:22;;;;;;;10.60;6.80;;;;;;;;;;5083150;28;20325;-71
2021/11/30 10:44:50;;;;;;;10.55;5.78;;;;;;;;;;5078433;28;20025;-72
2021/11/30 10:47:17;;;;;;;16.23;6.63;;;;;;;;;;5087741;28;20599;-71
2021/11/30 10:49:44;;;;;;;14.00;7.68;;;;;;;;;;5090858;28;20032;-71
2021/11/30 10:52:13;;;;;;;10.85;6.47;;;;;;;;;;5076537;28;20677;-72
2021/11/30 10:54:39;;;;;;;11.82;6.78;;;;;;;;;;5082060;28;20032;-71
2021/11/30 10:57:04;;;;;;;12.50;6.22;;;;;;;;;;5079888;28;20076;-71
2021/11/30 10:59:30;;;;;;;10.23;6.47;;;;;;;;;;5084273;28;20027;-71
2021/11/30 11:01:55;;;;;;;11.93;7.32;;;;;;;;;;5084239;28;20024;-72
2021/11/30 11:04:27;;;;;;;10.07;5.85;;;;;;;;;;5091844;28;20024;-71
2021/11/30 11:07:12;;;;;;;7.40;2.72;;;;;;;;;;5072108;28;20028;-71
2021/11/30 11:09:39;;;;;;;9.80;5.68;;;;;;;;;;5088835;28;20066;-72
2021/11/30 11:12:04;;;;;;;6.97;4.15;;;;;;;;;;5077761;28;20024;-71
2021/11/30 11:14:30;;;;;;;13.25;5.72;;;;;;;;;;5085200;28;20031;-71
2021/11/30 11:17:02;;;;;;;7.40;3.38;;;;;;;;;;5089774;28;20016;-71
2021/11/30 11:19:43;;;;;;;5.43;4.18;;;;;;;;;;5089209;28;20020;-72
2021/11/30 11:22:12;;;;;;;9.95;5.00;;;;;;;;;;5071507;28;20492;-72
2021/11/30 11:24:41;;;;;;;7.25;4.50;;;;;;;;;;5082063;28;20039;-72
2021/11/30 11:27:06;;;;;;;11.73;5.22;;;;;;;;;;5084985;28;20427;-72
2021/11/30 11:29:32;;;;;;;9.18;6.13;;;;;;;;;;5071683;28;20024;-71
2021/11/30 11:32:01;;;;;;;9.57;5.75;;;;;;;;;;5079140;28;20035;-72
2021/11/30 11:34:31;;;;;;;10.05;6.10;;;;;;;;;;5090104;28;20086;-72
2021/11/30 11:36:57;;;;;;;9.63;5.32;;;;;;;;;;5076121;28;20021;-71
2021/11/30 11:39:23;;;;;;;9.95;5.70;;;;;;;;;;5087661;28;20031;-71
2021/11/30 11:41:50;;;;;;;9.43;5.93;;;;;;;;;;5075580;28;20476;-72
2021/11/30 11:44:15;;;;;;;8.75;4.40;;;;;;;;;;5071326;28;20040;-72
2021/11/30 11:46:41;;;;;;;11.68;4.70;;;;;;;;;;5070846;28;20431;-71
2021/11/30 11:49:07;;;;;;;10.45;5.32;;;;;;;;;;5071425;28;20037;-71
2021/11/30 11:51:40;;;;;;;10.77;6.82;;;;;;;;;;5075259;28;20051;-72
2021/11/30 11:54:06;;;;;;;12.60;5.32;;;;;;;;;;5086458;28;20013;-71
2021/11/30 11:56:33;;;;;;;9.38;4.55;;;;;;;;;;5074382;28;20044;-72
2021/11/30 11:59:15;;;;;;;7.90;4.43;;;;;;;;;;5074829;28;20016;-72
2021/11/30 12:01:48;;;;;;;5.90;3.42;;;;;;;;;;5089224;28;20046;-70
2021/11/30 12:04:15;;;;;;;8.93;5.07;;;;;;;;;;5075804;28;20385;-70
2021/11/30 12:06:56;;;;;;;13.35;5.25;;;;;;;;;;5079813;28;20024;-71
2021/11/30 12:09:31;;;;;;;7.53;3.78;;;;;;;;;;5077323;28;20027;-72
2021/11/30 12:12:11;;;;;;;9.30;4.55;;;;;;;;;;5090052;28;20081;-71
2021/11/30 12:14:36;;;;;;;;;;;;;;;;;;5090396;28;20016;-72
2021/11/30 12:17:09;;;;;;;9.17;4.53;;;;;;;;;;5075627;28;19909;-72
2021/11/30 12:19:58;;;;;;;9.00;4.72;;;;;;;;;;5077878;28;20305;-69
2021/11/30 12:22:41;;;;;;;7.75;4.75;;;;;;;;;;5073111;28;20085;-71
2021/11/30 12:25:30;;;;;;;12.65;4.18;;;;;;;;;;5085866;28;20073;-71
2021/11/30 12:28:00;;;;;;;12.30;6.05;;;;;;;;;;5087984;28;20030;-70
2021/11/30 12:30:44;;;;;;;8.00;5.15;;;;;;;;;;5071393;28;20405;-71
2021/11/30 12:33:12;;;;;;;11.77;5.15;;;;;;;;;;5079271;28;20044;-70
2021/11/30 12:35:41;;;;;;;7.95;5.40;;;;;;;;;;5088691;28;20468;-72
2021/11/30 12:38:17;;;;;;;11.40;6.93;;;;;;;;;;5074120;28;20027;-72
2021/11/30 12:40:43;;;;;;;9.23;5.38;;;;;;;;;;5070459;28;20044;-72
2021/11/30 12:43:13;;;;;;;10.82;6.18;;;;;;;;;;5077694;28;20465;-72
2021/11/30 12:45:38;;;;;;;11.30;6.63;;;;;;;;;;5079850;28;20115;-70
2021/11/30 12:48:32;;;;;;;12.50;5.67;;;;;;;;;;5070637;28;20091;-72
2021/11/30 12:51:16;;;;;;;11.88;6.40;;;;;;;;;;5060159;28;20283;-72
2021/11/30 12:53:42;;;;;;;10.13;7.05;;;;;;;;;;5085508;28;20114;-72
2021/11/30 12:56:08;;;;;;;11.80;6.35;;;;;;;;;;5088967;28;20035;-72
2021/11/30 12:58:39;;;;;;;13.15;8.05;;;;;;;;;;5081815;28;20024;-70
2021/11/30 13:01:15;;;;;;;11.02;6.15;;;;;;;;;;5090334;28;20101;-72
2021/11/30 13:03:40;;;;;;;10.93;6.88;;;;;;;;;;5081395;28;20021;-73
2021/11/30 13:06:05;;;;;;;12.15;6.03;;;;;;;;;;5072951;28;20024;-70
2021/11/30 13:08:31;;;;;;;13.18;7.07;;;;;;;;;;5082057;28;20017;-71
2021/11/30 13:10:56;;;;;;;10.38;6.22;;;;;;;;;;5074686;28;20023;-72
2021/11/30 13:13:22;;;;;;;13.70;6.80;;;;;;;;;;5092810;28;20043;-72
2021/11/30 13:15:56;;;;;;;11.30;5.72;;;;;;;;;;5086119;28;20016;-71
2021/11/30 13:18:23;;;;;;;12.98;6.55;;;;;;;;;;5073913;28;20035;-72
2021/11/30 13:20:49;;;;;;;13.15;7.90;;;;;;;;;;5082378;28;20028;-72
2021/11/30 13:23:15;;;;;;;13.70;7.78;;;;;;;;;;5077853;28;20376;-71
2021/11/30 13:25:41;;;;;;;14.48;9.18;;;;;;;;;;5073865;28;20139;-72
2021/11/30 13:28:28;;;;;;;18.85;7.35;;;;;;;;;;5075137;28;20008;-71
2021/11/30 13:30:55;;;;;;;11.40;7.45;;;;;;;;;;5080329;28;20503;-71
2021/11/30 13:33:21;;;;;;;12.77;7.88;;;;;;;;;;5073626;28;20436;-71
2021/11/30 13:35:51;;;;;;;11.27;6.80;;;;;;;;;;5079463;28;20020;-72
2021/11/30 13:38:23;;;;;;;14.25;7.88;;;;;;;;;;5073940;28;20473;-70
2021/11/30 13:40:51;;;;;;;14.73;8.35;;;;;;;;;;5073823;28;20058;-71
2021/11/30 13:43:20;;;;;;;12.75;6.80;;;;;;;;;;5077774;28;20012;-71
2021/11/30 13:45:48;;;;;;;11.35;7.90;;;;;;;;;;5092250;28;20036;-72
2021/11/30 13:48:34;;;;;;;10.75;6.88;;;;;;;;;;5093504;28;20020;-72
2021/11/30 13:51:01;;;;;;;10.82;6.38;;;;;;;;;;5087655;28;20398;-72
2021/11/30 13:53:28;;;;;;;13.77;7.93;;;;;;;;;;5093679;28;20024;-72
2021/11/30 13:55:57;;;;;;;15.82;10.48;;;;;;;;;;5086655;28;20495;-73
2021/11/30 13:58:33;;;;;;;14.65;8.68;;;;;;;;;;5086772;28;20051;-72
2021/11/30 14:01:17;;;;;;;12.65;7.93;;;;;;;;;;5087857;28;20017;-72
2021/11/30 14:03:43;;;;;;;13.88;8.32;;;;;;;;;;5073680;28;20417;-72
2021/11/30 14:06:18;;;;;;;14.02;8.85;;;;;;;;;;5084649;28;20107;-73
2021/11/30 14:08:44;;;;;;;17.55;7.57;;;;;;;;;;5090894;28;20027;-73
2021/11/30 14:11:11;;;;;;;17.27;8.43;;;;;;;;;;5090244;28;20036;-72
2021/11/30 14:13:37;;;;;;;15.23;9.00;;;;;;;;;;5091397;28;20081;-72
2021/11/30 14:16:02;;;;;;;15.82;11.05;;;;;;;;;;5091591;28;20024;-72
2021/11/30 14:18:27;;;;;;;16.77;9.82;;;;;;;;;;5076725;28;20013;-72
2021/11/30 14:20:52;;;;;;;13.80;8.13;;;;;;;;;;5079598;28;20024;-72
2021/11/30 14:23:18;;;;;;;13.93;9.00;;;;;;;;;;5080040;28;20259;-71
2021/11/30 14:25:43;;;;;;;15.52;8.82;;;;;;;;;;5082792;28;20884;-73
2021/11/30 14:28:12;;;;;;;19.60;9.75;;;;;;;;;;5089613;28;20427;-72
2021/11/30 14:30:38;;;;;;;16.60;12.00;;;;;;;;;;5090527;28;20012;-73
2021/11/30 14:33:05;;;;;;;15.90;10.50;;;;;;;;;;5077034;28;20024;-71
2021/11/30 14:35:38;;;;;;;19.83;11.13;;;;;;;;;;5089010;28;20024;-71
2021/11/30 14:38:03;;;;;;;21.60;10.57;;;;;;;;;;5079543;28;20046;-71
2021/11/30 14:40:30;;;;;;;16.52;9.68;;;;;;;;;;5074267;28;20024;-71
2021/11/30 14:43:01;;;;;;;19.63;10.05;;;;;;;;;;5072565;28;20603;-74
2021/11/30 14:45:28;;;;;;;18.70;9.93;;;;;;;;;;5073675;28;20018;-71
2021/11/30 14:48:03;;;;;;;20.80;9.63;;;;;;;;;;5088898;28;20098;-73